createdAt,value
2019-05-09T00:01:04.905Z,87.10
2019-05-09T00:05:10.307Z,87.40
2019-05-09T00:09:15.324Z,85.70
2019-05-09T00:13:20.277Z,85.60
2019-05-09T00:17:25.512Z,85.20
2019-05-09T00:21:38.883Z,84.30
2019-05-09T00:25:43.886Z,85.40
2019-05-09T00:29:49.933Z,87.00
2019-05-09T00:33:58.485Z,88.50
2019-05-09T00:38:05.252Z,89.10
2019-05-09T00:42:10.252Z,90.00
2019-05-09T00:46:23.596Z,90.40
2019-05-09T00:50:29.652Z,89.90
2019-05-09T00:54:35.227Z,90.10
2019-05-09T00:58:40.019Z,90.30
2019-05-09T01:02:45.014Z,90.00
2019-05-09T01:06:50.157Z,90.10
2019-05-09T01:11:08.470Z,90.70
2019-05-09T01:15:03.336Z,90.70
2019-05-09T01:19:08.594Z,90.50
2019-05-09T01:23:14.282Z,90.60
2019-05-09T01:27:19.488Z,90.30
2019-05-09T01:31:24.506Z,90.50
2019-05-09T01:35:30.260Z,90.80
2019-05-09T01:39:36.600Z,90.60
2019-05-09T01:43:43.716Z,90.50
2019-05-09T01:47:48.385Z,90.00
2019-05-09T01:51:53.798Z,89.70
2019-05-09T01:55:59.393Z,90.70
2019-05-09T02:00:05.496Z,90.90
2019-05-09T02:04:13.511Z,91.20
2019-05-09T02:08:18.280Z,90.70
2019-05-09T02:12:24.606Z,90.70
2019-05-09T02:16:46.564Z,90.70
2019-05-09T02:20:53.288Z,90.80
2019-05-09T02:24:58.780Z,90.60
2019-05-09T02:29:03.721Z,90.60
2019-05-09T02:33:08.738Z,90.70
2019-05-09T02:37:13.712Z,90.10
2019-05-09T02:41:19.722Z,89.60
2019-05-09T02:45:29.244Z,89.30
2019-05-09T02:49:34.235Z,88.40
2019-05-09T02:53:39.821Z,87.10
2019-05-09T02:57:48.782Z,86.10
2019-05-09T03:02:19.533Z,85.60
2019-05-09T03:06:28.354Z,85.20
2019-05-09T03:10:32.773Z,84.70
2019-05-09T03:14:38.492Z,84.60
2019-05-09T03:18:43.878Z,84.20
2019-05-09T03:22:48.999Z,83.80
2019-05-09T03:26:59.675Z,84.20
2019-05-09T03:31:09.251Z,84.00
2019-05-09T03:35:12.826Z,84.20
2019-05-09T03:39:18.488Z,83.80
2019-05-09T03:43:24.680Z,83.40
2019-05-09T03:47:37.558Z,83.40
2019-05-09T03:51:42.176Z,83.70
2019-05-09T03:55:48.047Z,84.30
2019-05-09T03:59:52.937Z,84.00
2019-05-09T04:03:58.504Z,83.90
2019-05-09T04:08:22.070Z,84.50
2019-05-09T04:12:28.371Z,84.40
2019-05-09T04:16:33.792Z,84.50
2019-05-09T04:20:38.660Z,84.60
2019-05-09T04:24:44.021Z,84.50
2019-05-09T04:28:49.016Z,84.60
2019-05-09T04:32:53.962Z,84.80
2019-05-09T04:36:59.165Z,85.10
2019-05-09T04:41:04.148Z,86.20
2019-05-09T04:45:17.807Z,86.60
2019-05-09T04:49:22.771Z,85.70
2019-05-09T04:53:28.591Z,85.40
2019-05-09T04:57:35.251Z,84.90
2019-05-09T05:01:58.153Z,85.00
2019-05-09T05:06:02.848Z,84.40
2019-05-09T05:10:09.120Z,84.50
2019-05-09T05:14:23.983Z,84.30
2019-05-09T05:18:28.974Z,83.90
2019-05-09T05:22:51.122Z,84.20
2019-05-09T05:26:57.908Z,83.90
2019-05-09T05:31:02.823Z,84.00
2019-05-09T05:35:30.432Z,82.60
2019-05-09T05:39:37.490Z,82.90
2019-05-09T05:43:44.740Z,84.60
2019-05-09T05:47:53.884Z,86.20
2019-05-09T05:51:58.933Z,86.70
2019-05-09T05:56:04.243Z,86.00
2019-05-09T06:00:11.225Z,86.30
2019-05-09T06:04:18.608Z,86.70
2019-05-09T06:08:23.953Z,86.80
2019-05-09T06:12:29.760Z,86.60
2019-05-09T06:16:37.545Z,83.40
2019-05-09T06:20:41.707Z,82.60
2019-05-09T06:24:47.831Z,82.40
2019-05-09T06:28:53.053Z,80.90
2019-05-09T06:32:59.085Z,80.50
2019-05-09T06:37:04.337Z,81.00
2019-05-09T06:41:12.065Z,79.00
2019-05-09T06:45:34.444Z,78.30
2019-05-09T06:49:42.069Z,75.60
2019-05-09T06:53:48.845Z,74.90
2019-05-09T06:57:53.609Z,74.50
2019-05-09T07:02:00.885Z,75.00
2019-05-09T07:06:13.273Z,75.00
2019-05-09T07:10:18.328Z,75.00
2019-05-09T07:14:37.958Z,74.40
2019-05-09T07:18:40.294Z,75.80
2019-05-09T07:22:48.574Z,75.50
2019-05-09T07:26:53.511Z,75.40
2019-05-09T07:31:07.527Z,75.50
2019-05-09T07:35:12.907Z,73.50
2019-05-09T07:39:17.881Z,72.40
2019-05-09T07:43:22.748Z,73.90
2019-05-09T07:47:28.228Z,72.00
2019-05-09T07:51:33.506Z,69.10
2019-05-09T07:55:38.377Z,70.30
2019-05-09T07:59:43.315Z,71.00
2019-05-09T08:03:49.121Z,70.00
2019-05-09T08:07:54.316Z,70.70
2019-05-09T08:11:59.263Z,69.40
2019-05-09T08:16:04.260Z,66.50
2019-05-09T08:20:09.688Z,67.90
2019-05-09T08:24:14.712Z,68.10
2019-05-09T08:28:20.137Z,67.30
2019-05-09T08:32:28.641Z,64.40
2019-05-09T08:36:32.947Z,66.90
2019-05-09T08:40:38.439Z,63.40
2019-05-09T08:44:43.763Z,63.60
2019-05-09T08:48:48.822Z,63.50
2019-05-09T08:52:57.464Z,63.10
2019-05-09T08:57:01.692Z,62.20
2019-05-09T09:01:10.228Z,58.60
2019-05-09T09:05:14.110Z,59.20
2019-05-09T09:09:19.329Z,58.40
2019-05-09T09:13:24.289Z,57.90
2019-05-09T09:17:29.192Z,57.20
2019-05-09T09:21:34.008Z,57.60
2019-05-09T09:25:39.294Z,57.80
2019-05-09T09:29:44.367Z,55.70
2019-05-09T09:33:49.271Z,54.80
2019-05-09T09:37:54.164Z,54.50
2019-05-09T09:41:59.035Z,53.70
2019-05-09T09:46:10.882Z,53.30
2019-05-09T09:50:10.829Z,52.20
2019-05-09T09:54:15.733Z,51.30
2019-05-09T09:58:20.637Z,52.00
2019-05-09T10:02:29.477Z,51.40
2019-05-09T10:06:34.367Z,52.10
2019-05-09T10:10:39.968Z,51.70
2019-05-09T10:14:49.596Z,52.80
2019-05-09T10:19:12.357Z,52.50
2019-05-09T10:23:20.769Z,51.70
2019-05-09T10:27:23.893Z,49.60
2019-05-09T10:31:28.818Z,50.30
2019-05-09T10:35:33.908Z,51.00
2019-05-09T10:39:38.825Z,50.50
2019-05-09T10:43:53.858Z,48.10
2019-05-09T10:47:58.838Z,48.50
2019-05-09T10:52:03.725Z,47.10
2019-05-09T10:56:09.737Z,48.40
2019-05-09T11:00:15.039Z,45.90
2019-05-09T11:04:20.042Z,46.30
2019-05-09T11:08:24.883Z,46.10
2019-05-09T11:12:29.785Z,48.30
2019-05-09T11:16:45.552Z,50.40
2019-05-09T11:20:41.437Z,50.10
2019-05-09T11:24:50.533Z,52.70
2019-05-09T11:28:52.828Z,56.90
2019-05-09T11:32:59.759Z,61.80
2019-05-09T11:37:05.426Z,64.50
2019-05-09T11:41:10.349Z,66.40
2019-05-09T11:45:17.714Z,67.20
2019-05-09T11:49:22.141Z,67.70
2019-05-09T11:53:28.755Z,71.60
2019-05-09T11:57:33.560Z,63.30
2019-05-09T12:01:39.834Z,63.50
2019-05-09T12:05:47.484Z,64.40
2019-05-09T12:09:52.005Z,58.30
2019-05-09T12:13:58.112Z,57.30
2019-05-09T12:18:08.409Z,58.00
2019-05-09T12:22:09.929Z,54.80
2019-05-09T12:26:17.732Z,54.20
2019-05-09T12:30:21.621Z,52.40
2019-05-09T12:34:27.655Z,51.40
2019-05-09T12:38:32.762Z,52.30
2019-05-09T12:42:39.262Z,50.30
2019-05-09T12:46:48.712Z,49.70
2019-05-09T12:50:54.055Z,50.20
2019-05-09T12:54:58.894Z,48.80
2019-05-09T12:59:03.783Z,46.70
2019-05-09T13:03:08.841Z,44.80
2019-05-09T13:07:13.985Z,44.10
2019-05-09T13:11:20.111Z,45.30
2019-05-09T13:15:33.467Z,44.60
2019-05-09T13:19:41.991Z,44.80
2019-05-09T13:23:52.243Z,43.80
2019-05-09T13:27:55.081Z,41.70
2019-05-09T13:32:00.168Z,41.20
2019-05-09T13:36:05.109Z,43.10
2019-05-09T13:40:10.338Z,40.70
2019-05-09T13:44:17.802Z,39.90
2019-05-09T13:48:32.653Z,39.10
2019-05-09T13:52:28.500Z,38.70
2019-05-09T13:56:33.413Z,40.30
2019-05-09T14:00:39.073Z,39.30
2019-05-09T14:04:44.691Z,38.90
2019-05-09T14:08:49.581Z,41.30
2019-05-09T14:13:05.729Z,40.70
2019-05-09T14:17:01.383Z,39.50
2019-05-09T14:21:07.761Z,39.70
2019-05-09T14:25:13.037Z,41.90
2019-05-09T14:29:20.452Z,43.30
2019-05-09T14:33:24.479Z,43.40
2019-05-09T14:37:29.372Z,43.60
2019-05-09T14:41:34.224Z,44.00
2019-05-09T14:45:39.046Z,45.20
2019-05-09T14:49:44.768Z,47.40
2019-05-09T14:53:49.958Z,48.50
2019-05-09T14:57:54.799Z,57.80
2019-05-09T15:01:59.647Z,60.60
2019-05-09T15:06:07.568Z,62.60
2019-05-09T15:10:13.140Z,58.70
2019-05-09T15:14:18.324Z,58.00
2019-05-09T15:18:23.549Z,55.60
2019-05-09T15:22:28.593Z,54.10
2019-05-09T15:26:33.488Z,52.00
2019-05-09T15:30:38.664Z,50.70
2019-05-09T15:34:43.823Z,51.50
2019-05-09T15:38:48.839Z,51.30
2019-05-09T15:42:54.034Z,48.40
2019-05-09T15:47:04.718Z,46.70
2019-05-09T15:51:09.627Z,48.40
2019-05-09T15:55:14.631Z,45.90
2019-05-09T15:59:19.793Z,44.10
2019-05-09T16:03:24.733Z,43.60
2019-05-09T16:07:29.724Z,43.20
2019-05-09T16:11:34.893Z,44.70
2019-05-09T16:15:39.825Z,43.90
2019-05-09T16:19:44.816Z,42.80
2019-05-09T16:23:50.503Z,41.60
2019-05-09T16:27:55.364Z,45.80
2019-05-09T16:32:00.180Z,48.10
2019-05-09T16:36:05.396Z,50.30
2019-05-09T16:40:10.760Z,51.10
2019-05-09T16:44:18.329Z,51.10
2019-05-09T16:48:22.568Z,52.00
2019-05-09T16:52:27.519Z,49.50
2019-05-09T16:56:33.113Z,48.70
2019-05-09T17:00:42.944Z,48.90
2019-05-09T17:04:48.159Z,48.90
2019-05-09T17:08:52.992Z,50.00
2019-05-09T17:12:58.361Z,50.50
2019-05-09T17:17:04.052Z,50.90
2019-05-09T17:21:48.100Z,51.50
2019-05-09T17:25:52.988Z,51.40
2019-05-09T17:29:58.429Z,51.60
2019-05-09T17:34:03.975Z,52.20
2019-05-09T17:38:08.933Z,51.20
2019-05-09T17:42:14.237Z,52.20
2019-05-09T17:46:19.493Z,52.40
2019-05-09T17:50:24.425Z,53.40
2019-05-09T17:54:29.899Z,54.80
2019-05-09T17:58:35.019Z,55.50
2019-05-09T18:02:39.948Z,55.30
2019-05-09T18:06:45.241Z,54.70
2019-05-09T18:10:50.179Z,55.70
2019-05-09T18:14:55.547Z,56.30
2019-05-09T18:19:01.265Z,56.00
2019-05-09T18:23:08.249Z,56.30
2019-05-09T18:27:13.644Z,57.30
2019-05-09T18:31:18.640Z,57.90
2019-05-09T18:35:24.820Z,57.80
2019-05-09T18:39:29.852Z,57.60
2019-05-09T18:43:35.068Z,58.00
2019-05-09T18:47:39.973Z,58.40
2019-05-09T18:51:44.946Z,59.00
2019-05-09T18:55:50.186Z,59.40
2019-05-09T18:59:55.127Z,59.70
2019-05-09T19:04:00.149Z,59.20
2019-05-09T19:08:05.075Z,58.70
2019-05-09T19:12:10.021Z,58.80
2019-05-09T19:16:33.304Z,60.20
2019-05-09T19:20:55.554Z,61.40
2019-05-09T19:24:59.618Z,61.20
2019-05-09T19:29:05.573Z,62.60
2019-05-09T19:33:10.497Z,62.30
2019-05-09T19:37:15.444Z,62.70
2019-05-09T19:41:20.386Z,63.20
2019-05-09T19:45:25.696Z,63.80
2019-05-09T19:49:30.633Z,64.20
2019-05-09T19:53:35.535Z,64.00
2019-05-09T19:57:40.592Z,64.10
2019-05-09T20:01:45.518Z,63.80
2019-05-09T20:05:51.147Z,63.20
2019-05-09T20:10:02.547Z,63.70
2019-05-09T20:14:23.917Z,63.50
2019-05-09T20:18:28.844Z,63.20
2019-05-09T20:22:33.935Z,63.50
2019-05-09T20:26:39.029Z,64.90
2019-05-09T20:30:43.963Z,64.90
2019-05-09T20:34:49.404Z,66.40
2019-05-09T20:38:54.501Z,66.50
2019-05-09T20:43:00.838Z,67.20
2019-05-09T20:47:06.202Z,68.40
2019-05-09T20:51:11.319Z,68.00
2019-05-09T20:55:16.446Z,67.50
2019-05-09T20:59:21.615Z,67.60
2019-05-09T21:03:26.728Z,68.40
2019-05-09T21:07:31.761Z,68.90
2019-05-09T21:11:37.275Z,69.20
2019-05-09T21:15:42.574Z,69.80
2019-05-09T21:19:47.583Z,70.20
2019-05-09T21:23:52.814Z,70.60
2019-05-09T21:27:57.949Z,70.60
2019-05-09T21:32:03.041Z,70.80
2019-05-09T21:36:07.990Z,70.40
2019-05-09T21:40:13.309Z,71.50
2019-05-09T21:44:18.356Z,73.20
2019-05-09T21:48:23.493Z,73.00
2019-05-09T21:52:28.406Z,72.80
2019-05-09T21:56:33.456Z,73.20
2019-05-09T22:00:41.344Z,73.00
2019-05-09T22:04:48.101Z,73.60
2019-05-09T22:08:53.044Z,74.00
2019-05-09T22:12:58.026Z,74.60
2019-05-09T22:17:08.954Z,74.30
2019-05-09T22:21:23.140Z,74.30
2019-05-09T22:25:29.105Z,74.40
2019-05-09T22:29:34.012Z,74.60
2019-05-09T22:33:39.157Z,74.40
2019-05-09T22:37:44.144Z,74.50
2019-05-09T22:41:49.159Z,74.50
2019-05-09T22:45:54.576Z,75.20
2019-05-09T22:49:59.524Z,75.40
2019-05-09T22:54:12.837Z,75.90
2019-05-09T22:58:11.145Z,76.40
2019-05-09T23:02:17.260Z,76.00
2019-05-09T23:06:22.187Z,76.80
2019-05-09T23:10:27.054Z,77.50
2019-05-09T23:14:32.188Z,77.70
2019-05-09T23:18:37.403Z,78.30
2019-05-09T23:22:42.308Z,78.20
2019-05-09T23:26:47.281Z,79.00
2019-05-09T23:30:54.181Z,78.80
2019-05-09T23:34:59.120Z,79.10
2019-05-09T23:39:15.963Z,79.20
2019-05-09T23:43:20.905Z,79.00
2019-05-09T23:47:27.246Z,79.00
2019-05-09T23:51:45.287Z,79.40
2019-05-09T23:56:08.454Z,79.50
